createdAt,value
2022-10-23T00:01:45.720Z,1.63
2022-10-23T00:04:16.067Z,2.08
2022-10-23T00:06:44.864Z,1.42
2022-10-23T00:09:14.609Z,1.23
2022-10-23T00:14:13.786Z,1.70
2022-10-23T00:16:41.766Z,1.83
2022-10-23T00:19:09.807Z,1.65
2022-10-23T00:21:37.687Z,2.17
2022-10-23T00:24:06.245Z,1.85
2022-10-23T00:26:34.086Z,1.70
2022-10-23T00:29:01.775Z,1.45
2022-10-23T00:31:30.953Z,1.60
2022-10-23T00:33:58.734Z,1.60
2022-10-23T00:36:26.604Z,1.23
2022-10-23T00:38:54.429Z,1.40
2022-10-23T00:41:25.962Z,1.38
2022-10-23T00:44:31.773Z,1.70
2022-10-23T00:47:01.257Z,1.83
2022-10-23T00:49:29.918Z,1.15
2022-10-23T00:52:04.431Z,1.35
2022-10-23T00:54:35.974Z,1.40
2022-10-23T00:57:07.276Z,1.10
2022-10-23T00:59:35.869Z,1.38
2022-10-23T01:02:06.660Z,1.25
2022-10-23T01:04:36.002Z,1.50
2022-10-23T01:07:13.615Z,1.40
2022-10-23T01:09:48.928Z,1.30
2022-10-23T01:12:25.123Z,1.30
2022-10-23T01:15:02.096Z,1.60
2022-10-23T01:17:39.683Z,1.40
2022-10-23T01:20:26.897Z,1.58
2022-10-23T01:23:12.874Z,1.70
2022-10-23T01:25:59.289Z,1.55
2022-10-23T01:28:31.983Z,1.67
2022-10-23T01:31:03.563Z,2.28
2022-10-23T01:33:36.748Z,2.08
2022-10-23T01:36:07.929Z,1.85
2022-10-23T01:38:43.005Z,1.88
2022-10-23T01:41:15.125Z,1.67
2022-10-23T01:43:49.121Z,1.98
2022-10-23T01:46:18.813Z,2.38
2022-10-23T01:48:52.070Z,2.00
2022-10-23T01:51:21.678Z,1.92
2022-10-23T01:53:53.517Z,2.15
2022-10-23T01:56:26.511Z,1.90
2022-10-23T01:58:57.809Z,1.70
2022-10-23T02:01:28.918Z,1.70
2022-10-23T02:06:31.556Z,2.35
2022-10-23T02:08:59.435Z,2.13
2022-10-23T02:11:27.395Z,1.95
2022-10-23T02:14:02.979Z,1.75
2022-10-23T02:16:38.057Z,1.92
2022-10-23T02:19:13.670Z,1.58
2022-10-23T02:21:52.038Z,1.60
2022-10-23T02:24:24.815Z,2.35
2022-10-23T02:26:55.242Z,1.75
2022-10-23T02:29:29.567Z,1.60
2022-10-23T02:31:57.650Z,1.65
2022-10-23T02:34:25.762Z,1.75
2022-10-23T02:36:53.608Z,2.05
2022-10-23T02:39:22.370Z,1.80
2022-10-23T02:41:57.190Z,1.80
2022-10-23T02:44:37.458Z,1.70
2022-10-23T02:47:17.530Z,1.92
2022-10-23T02:49:54.271Z,1.60
2022-10-23T02:52:28.528Z,1.60
2022-10-23T02:55:12.426Z,1.98
2022-10-23T02:57:45.701Z,1.73
2022-10-23T03:00:18.327Z,1.65
2022-10-23T03:02:51.515Z,1.40
2022-10-23T03:05:23.062Z,1.60
2022-10-23T03:07:51.651Z,1.90
2022-10-23T03:10:19.538Z,1.42
2022-10-23T03:12:48.841Z,1.48
2022-10-23T03:15:19.346Z,1.58
2022-10-23T03:17:47.395Z,1.55
2022-10-23T03:20:15.555Z,1.55
2022-10-23T03:22:43.482Z,1.63
2022-10-23T03:25:11.653Z,1.42
2022-10-23T03:27:40.014Z,1.58
2022-10-23T03:30:09.279Z,1.70
2022-10-23T03:32:38.568Z,1.48
2022-10-23T03:35:07.141Z,1.27
2022-10-23T03:37:35.123Z,2.05
2022-10-23T03:40:03.493Z,1.55
2022-10-23T03:42:31.263Z,1.50
2022-10-23T03:44:59.057Z,1.70
2022-10-23T03:47:26.767Z,1.63
2022-10-23T03:49:55.913Z,1.50
2022-10-23T03:54:52.276Z,2.13
2022-10-23T03:57:20.042Z,2.30
2022-10-23T03:59:48.114Z,2.80
2022-10-23T04:02:16.212Z,2.38
2022-10-23T04:04:43.980Z,3.00
2022-10-23T04:07:13.091Z,2.80
2022-10-23T04:09:40.952Z,2.70
2022-10-23T04:12:09.248Z,2.30
2022-10-23T04:14:37.144Z,2.13
2022-10-23T04:17:04.900Z,2.10
2022-10-23T04:19:32.722Z,2.20
2022-10-23T04:22:00.467Z,2.15
2022-10-23T04:24:30.257Z,2.00
2022-10-23T04:29:25.858Z,1.50
2022-10-23T04:31:53.578Z,2.40
2022-10-23T04:34:21.623Z,1.90
2022-10-23T04:36:49.423Z,2.10
2022-10-23T04:39:17.232Z,1.80
2022-10-23T04:41:46.664Z,2.47
2022-10-23T04:44:14.691Z,1.95
2022-10-23T04:46:42.418Z,1.98
2022-10-23T04:49:10.208Z,2.88
2022-10-23T04:51:38.470Z,2.72
2022-10-23T04:54:06.299Z,2.92
2022-10-23T04:56:34.202Z,2.60
2022-10-23T05:04:00.555Z,2.05
2022-10-23T05:06:28.318Z,1.85
2022-10-23T05:08:56.142Z,1.95
2022-10-23T05:11:24.068Z,1.45
2022-10-23T05:13:51.841Z,1.23
2022-10-23T05:16:31.307Z,1.52
2022-10-23T05:18:59.874Z,1.35
2022-10-23T05:21:32.409Z,1.40
2022-10-23T05:24:01.877Z,1.50
2022-10-23T05:26:30.061Z,1.40
2022-10-23T05:28:57.816Z,1.73
2022-10-23T05:31:27.025Z,1.50
2022-10-23T05:33:57.851Z,1.60
2022-10-23T05:36:27.093Z,1.55
2022-10-23T05:38:55.379Z,1.92
2022-10-23T05:41:23.088Z,1.70
2022-10-23T05:43:50.989Z,3.15
2022-10-23T05:46:18.867Z,1.90
2022-10-23T05:48:51.069Z,3.30
2022-10-23T05:51:22.174Z,2.40
2022-10-23T05:53:50.232Z,2.15
2022-10-23T05:56:18.592Z,1.77
2022-10-23T05:58:46.719Z,1.90
2022-10-23T06:01:18.107Z,1.80
2022-10-23T06:03:46.216Z,1.83
2022-10-23T06:06:15.249Z,2.13
2022-10-23T06:08:42.996Z,1.90
2022-10-23T06:11:12.611Z,1.80
2022-10-23T06:13:43.475Z,1.73
2022-10-23T06:16:12.383Z,1.50
2022-10-23T06:18:40.487Z,1.50
2022-10-23T06:21:08.747Z,1.58
2022-10-23T06:23:39.815Z,1.45
2022-10-23T06:26:09.489Z,1.50
2022-10-23T06:28:37.817Z,1.75
2022-10-23T06:31:06.706Z,1.30
2022-10-23T06:33:34.612Z,1.60
2022-10-23T06:36:02.385Z,2.03
2022-10-23T06:38:36.597Z,1.40
2022-10-23T06:41:07.126Z,1.70
2022-10-23T06:43:35.409Z,1.40
2022-10-23T06:46:04.423Z,1.45
2022-10-23T06:48:33.006Z,1.50
2022-10-23T06:51:02.970Z,1.60
2022-10-23T07:18:23.274Z,1.13
2022-10-23T09:04:00.228Z,0.90
2022-10-23T09:06:36.850Z,1.00
2022-10-23T09:09:28.238Z,1.00
2022-10-23T09:12:04.478Z,0.90
2022-10-23T09:15:19.631Z,0.80
2022-10-23T09:17:48.989Z,0.80
2022-10-23T09:23:00.933Z,0.70
2022-10-23T09:25:35.127Z,1.02
2022-10-23T09:28:05.710Z,0.75
2022-10-23T09:30:35.931Z,1.10
2022-10-23T09:33:18.522Z,1.05
2022-10-23T09:35:57.976Z,0.80
2022-10-23T09:38:31.805Z,0.85
2022-10-23T09:41:05.983Z,1.00
2022-10-23T09:43:34.224Z,0.60
2022-10-23T09:46:05.112Z,0.90
2022-10-23T09:48:35.945Z,0.80
2022-10-23T09:51:06.567Z,0.82
2022-10-23T09:53:36.463Z,0.80
2022-10-23T09:56:12.608Z,0.82
2022-10-23T09:58:54.401Z,0.68
2022-10-23T10:01:26.487Z,0.60
2022-10-23T10:03:55.260Z,0.80
2022-10-23T10:06:26.255Z,0.90
2022-10-23T10:08:56.800Z,1.00
2022-10-23T10:11:35.379Z,0.82
2022-10-23T10:14:30.705Z,1.00
2022-10-23T10:17:04.988Z,0.80
2022-10-23T10:19:48.463Z,0.80
2022-10-23T10:22:29.949Z,0.63
2022-10-23T10:25:03.224Z,0.60
2022-10-23T10:27:47.288Z,0.70
2022-10-23T10:30:19.561Z,0.60
2022-10-23T10:32:56.772Z,0.57
2022-10-23T10:35:29.985Z,0.70
2022-10-23T10:38:19.271Z,0.70
2022-10-23T10:40:58.294Z,0.50
2022-10-23T10:43:43.011Z,0.60
2022-10-23T10:46:17.718Z,0.60
2022-10-23T10:48:53.380Z,0.65
2022-10-23T10:51:29.288Z,0.50
2022-10-23T10:54:14.277Z,0.50
2022-10-23T10:56:46.819Z,0.70
2022-10-23T10:59:23.561Z,0.85
2022-10-23T11:01:57.726Z,0.60
2022-10-23T11:04:35.148Z,0.70
2022-10-23T11:07:12.438Z,0.80
2022-10-23T11:09:43.656Z,0.75
2022-10-23T11:12:18.925Z,0.85
2022-10-23T11:14:50.084Z,0.47
2022-10-23T11:17:25.825Z,0.52
2022-10-23T11:20:02.302Z,0.70
2022-10-23T11:22:36.991Z,0.60
2022-10-23T11:25:25.451Z,0.57
2022-10-23T11:28:13.201Z,0.70
2022-10-23T11:30:59.770Z,0.93
2022-10-23T11:33:55.994Z,0.90
2022-10-23T11:36:44.506Z,0.77
2022-10-23T11:39:21.315Z,0.70
2022-10-23T11:41:55.970Z,0.55
2022-10-23T11:44:29.148Z,0.50
2022-10-23T11:47:07.185Z,0.70
2022-10-23T11:49:35.233Z,0.60
2022-10-23T11:52:06.075Z,0.73
2022-10-23T11:54:34.525Z,0.63
2022-10-23T11:57:14.872Z,0.60
2022-10-23T11:59:54.906Z,0.70
2022-10-23T12:02:32.279Z,0.47
2022-10-23T12:05:05.493Z,1.05
2022-10-23T12:07:37.107Z,1.00
2022-10-23T12:10:07.774Z,1.30
2022-10-23T12:12:40.956Z,0.60
2022-10-23T12:15:25.172Z,0.75
2022-10-23T12:17:56.808Z,0.68
2022-10-23T12:20:32.013Z,0.50
2022-10-23T12:23:17.245Z,0.40
2022-10-23T12:26:00.456Z,0.60
2022-10-23T12:28:38.143Z,0.60
2022-10-23T12:31:26.477Z,0.50
2022-10-23T12:34:06.340Z,0.60
2022-10-23T12:36:48.681Z,0.45
2022-10-23T12:39:41.174Z,0.60
2022-10-23T12:42:18.434Z,0.82
2022-10-23T12:44:46.507Z,0.70
2022-10-23T12:47:19.790Z,0.60
2022-10-23T12:49:52.454Z,0.60
2022-10-23T12:52:22.084Z,0.70
2022-10-23T12:54:50.969Z,0.70
2022-10-23T12:57:22.941Z,0.90
2022-10-23T12:59:55.756Z,0.80
2022-10-23T13:02:25.747Z,0.70
2022-10-23T13:04:56.745Z,0.50
2022-10-23T13:07:27.481Z,0.68
2022-10-23T13:09:57.087Z,0.57
2022-10-23T13:12:28.354Z,0.70
2022-10-23T13:14:59.783Z,0.50
2022-10-23T13:17:39.386Z,0.60
2022-10-23T13:20:21.458Z,0.95
2022-10-23T13:22:50.655Z,0.65
2022-10-23T13:25:24.208Z,0.75
2022-10-23T13:27:59.780Z,0.90
2022-10-23T13:30:34.054Z,0.60
2022-10-23T13:33:01.920Z,0.70
2022-10-23T13:35:31.017Z,0.80
2022-10-23T13:38:09.240Z,0.50
2022-10-23T13:40:37.399Z,0.60
2022-10-23T13:43:15.714Z,0.60
2022-10-23T13:45:43.487Z,0.80
2022-10-23T13:48:16.320Z,0.80
2022-10-23T13:50:45.800Z,1.05
2022-10-23T13:55:45.581Z,0.82
2022-10-23T13:58:13.903Z,0.65
2022-10-23T14:00:43.819Z,0.70
2022-10-23T14:03:12.158Z,0.90
2022-10-23T14:05:39.986Z,0.77
2022-10-23T14:08:09.110Z,0.85
2022-10-23T14:10:37.403Z,0.50
2022-10-23T14:13:05.790Z,0.68
2022-10-23T14:15:34.057Z,1.00
2022-10-23T14:18:07.307Z,0.60
2022-10-23T14:20:36.075Z,0.90
2022-10-23T14:23:03.953Z,0.70
2022-10-23T14:25:33.515Z,1.02
2022-10-23T14:28:01.397Z,0.80
2022-10-23T14:30:31.004Z,0.80
2022-10-23T14:32:59.609Z,0.75
2022-10-23T14:35:29.902Z,0.70
2022-10-23T14:37:59.074Z,1.00
2022-10-23T14:40:27.681Z,0.80
2022-10-23T14:42:57.221Z,0.93
2022-10-23T14:48:16.397Z,1.38
2022-10-23T14:50:49.160Z,0.80
2022-10-23T14:53:18.163Z,2.22
2022-10-23T14:56:01.710Z,1.80
2022-10-23T14:58:31.671Z,0.93
2022-10-23T15:01:00.614Z,1.00
2022-10-23T15:03:38.392Z,1.10
2022-10-23T15:06:08.325Z,0.75
2022-10-23T15:08:36.528Z,0.88
2022-10-23T15:11:07.745Z,1.00
2022-10-23T15:13:40.772Z,1.38
2022-10-23T15:16:12.316Z,0.90
2022-10-23T15:18:41.183Z,1.13
2022-10-23T15:21:10.265Z,0.90
2022-10-23T15:23:40.886Z,0.90
2022-10-23T15:26:10.729Z,0.70
2022-10-23T15:28:41.216Z,1.00
2022-10-23T15:31:41.302Z,1.05
2022-10-23T15:34:11.414Z,0.80
2022-10-23T15:36:39.864Z,0.80
2022-10-23T15:39:09.269Z,0.80
2022-10-23T15:41:38.802Z,1.02
2022-10-23T15:46:37.043Z,0.90
2022-10-23T15:49:05.748Z,0.90
2022-10-23T15:51:34.001Z,0.80
2022-10-23T15:54:01.843Z,0.80
2022-10-23T15:56:29.611Z,0.80
2022-10-23T15:59:01.382Z,0.90
2022-10-23T16:01:31.019Z,0.93
2022-10-23T16:06:26.660Z,0.70
2022-10-23T16:11:25.130Z,0.90
2022-10-23T16:13:55.546Z,0.77
2022-10-23T16:16:23.840Z,0.88
2022-10-23T16:18:53.247Z,1.15
2022-10-23T16:21:23.434Z,1.00
2022-10-23T16:24:31.640Z,1.08
2022-10-23T16:27:00.070Z,0.98
2022-10-23T16:29:29.732Z,1.20
2022-10-23T16:32:14.660Z,1.13
2022-10-23T16:34:44.532Z,1.23
2022-10-23T16:37:12.371Z,1.00
2022-10-23T16:39:40.397Z,1.10
2022-10-23T16:42:08.394Z,0.70
2022-10-23T16:44:36.243Z,1.10
2022-10-23T16:47:04.024Z,1.00
2022-10-23T16:49:32.318Z,0.70
2022-10-23T16:52:01.676Z,0.88
2022-10-23T16:54:29.383Z,0.90
2022-10-23T16:56:57.374Z,0.65
2022-10-23T16:59:25.258Z,0.70
2022-10-23T17:01:54.152Z,0.70
2022-10-23T17:04:22.623Z,0.60
2022-10-23T17:06:50.526Z,0.98
2022-10-23T17:09:20.317Z,1.10
2022-10-23T17:11:48.167Z,0.77
2022-10-23T17:14:18.071Z,0.52
2022-10-23T17:16:48.192Z,0.82
2022-10-23T17:19:43.440Z,0.60
2022-10-23T17:22:10.458Z,0.73
2022-10-23T17:24:40.865Z,0.60
2022-10-23T17:27:09.115Z,0.50
2022-10-23T17:29:37.545Z,0.85
2022-10-23T17:32:06.052Z,0.82
2022-10-23T17:34:33.933Z,0.70
2022-10-23T17:37:02.156Z,0.80
2022-10-23T17:39:30.803Z,0.68
2022-10-23T17:42:00.729Z,0.80
2022-10-23T17:44:29.202Z,0.80
2022-10-23T17:46:57.447Z,0.75
2022-10-23T17:49:26.291Z,0.80
2022-10-23T17:51:55.660Z,0.90
2022-10-23T17:54:24.763Z,0.80
2022-10-23T17:56:52.832Z,0.95
2022-10-23T17:59:22.308Z,1.00
2022-10-23T18:01:51.113Z,1.00
2022-10-23T18:04:20.921Z,0.68
2022-10-23T18:06:51.104Z,0.82
2022-10-23T18:09:19.564Z,0.70
2022-10-23T18:11:49.119Z,0.90
2022-10-23T18:16:46.608Z,0.77
2022-10-23T18:19:15.108Z,0.90
2022-10-23T18:21:42.928Z,0.88
2022-10-23T18:24:11.586Z,0.85
2022-10-23T18:26:42.418Z,0.87
2022-10-23T18:29:12.150Z,1.00
2022-10-23T18:31:41.192Z,0.73
2022-10-23T18:34:15.569Z,1.00
2022-10-23T18:36:43.791Z,1.13
2022-10-23T18:39:16.213Z,1.00
2022-10-23T18:41:46.041Z,0.70
2022-10-23T18:44:17.187Z,1.05
2022-10-23T18:46:46.067Z,0.82
2022-10-23T18:49:16.040Z,1.00
2022-10-23T18:51:44.673Z,0.90
2022-10-23T18:54:14.640Z,0.75
2022-10-23T18:56:42.428Z,0.90
2022-10-23T18:59:14.191Z,0.95
2022-10-23T19:01:42.544Z,1.05
2022-10-23T19:04:12.757Z,0.90
2022-10-23T19:06:42.049Z,1.08
2022-10-23T19:09:11.200Z,0.80
2022-10-23T19:11:39.158Z,0.70
2022-10-23T19:14:07.488Z,0.90
2022-10-23T19:16:43.265Z,0.80
2022-10-23T19:19:15.928Z,0.98
2022-10-23T19:21:46.558Z,0.80
2022-10-23T19:24:17.634Z,0.88
2022-10-23T19:26:45.898Z,0.90
2022-10-23T19:29:18.162Z,1.00
2022-10-23T19:31:49.356Z,1.05
2022-10-23T19:34:20.048Z,0.90
2022-10-23T19:36:50.109Z,1.02
2022-10-23T19:39:18.567Z,0.80
2022-10-23T19:41:47.290Z,0.82
2022-10-23T19:44:16.510Z,1.03
2022-10-23T19:46:44.724Z,0.98
2022-10-23T19:49:12.961Z,1.10
2022-10-23T19:51:41.072Z,1.35
2022-10-23T19:54:10.771Z,1.20
2022-10-23T19:56:38.783Z,1.10
2022-10-23T19:59:07.233Z,1.17
2022-10-23T20:01:35.609Z,1.10
2022-10-23T20:04:03.650Z,1.17
2022-10-23T20:06:34.589Z,1.10
2022-10-23T20:09:04.885Z,0.90
2022-10-23T20:11:34.123Z,1.20
2022-10-23T20:14:02.027Z,0.93
2022-10-23T20:16:32.587Z,1.00
2022-10-23T20:19:03.140Z,1.30
2022-10-23T20:21:31.350Z,1.15
2022-10-23T20:24:00.741Z,1.05
2022-10-23T20:26:28.689Z,1.10
2022-10-23T20:28:58.345Z,1.00
2022-10-23T20:31:28.053Z,1.33
2022-10-23T20:33:57.444Z,1.33
2022-10-23T20:36:29.598Z,1.00
2022-10-23T20:38:58.937Z,1.48
2022-10-23T20:41:28.944Z,1.35
2022-10-23T20:43:58.139Z,1.38
2022-10-23T20:46:26.161Z,1.48
2022-10-23T20:48:54.558Z,1.63
2022-10-23T20:51:24.403Z,1.55
2022-10-23T20:53:54.631Z,1.30
2022-10-23T20:56:30.024Z,1.60
2022-10-23T20:58:59.845Z,2.03
2022-10-23T21:01:28.818Z,1.42
2022-10-23T21:03:58.089Z,1.50
2022-10-23T21:06:27.169Z,1.45
2022-10-23T21:08:56.523Z,1.13
2022-10-23T21:11:25.496Z,1.35
2022-10-23T21:13:53.697Z,1.25
2022-10-23T21:16:28.439Z,1.33
2022-10-23T21:18:57.342Z,1.20
2022-10-23T21:21:26.591Z,1.30
2022-10-23T21:23:56.194Z,1.27
2022-10-23T21:26:25.526Z,1.40
2022-10-23T21:29:06.632Z,1.17
2022-10-23T21:31:43.890Z,1.00
2022-10-23T21:36:54.107Z,0.98
2022-10-23T21:39:28.624Z,0.88
2022-10-23T21:41:56.600Z,1.07
2022-10-23T21:44:24.648Z,0.77
2022-10-23T21:46:53.785Z,0.77
2022-10-23T21:49:21.728Z,0.75
2022-10-23T21:51:49.533Z,0.77
2022-10-23T21:54:17.568Z,0.65
2022-10-23T21:56:47.757Z,1.00
2022-10-23T21:59:17.648Z,0.90
2022-10-23T22:01:47.625Z,0.88
2022-10-23T22:04:18.858Z,0.80
2022-10-23T22:06:48.315Z,0.95
2022-10-23T22:09:19.422Z,0.90
2022-10-23T22:11:47.674Z,1.20
2022-10-23T22:14:15.577Z,1.42
2022-10-23T22:16:43.561Z,1.10
2022-10-23T22:19:13.692Z,0.98
2022-10-23T22:21:43.476Z,1.70
2022-10-23T22:24:11.850Z,1.02
2022-10-23T22:26:41.870Z,1.27
2022-10-23T22:29:12.145Z,1.20
2022-10-23T22:31:44.222Z,1.20
2022-10-23T22:34:28.629Z,1.38
2022-10-23T22:37:11.736Z,1.10
2022-10-23T22:39:40.436Z,1.60
2022-10-23T22:42:08.491Z,1.70
2022-10-23T22:44:37.540Z,1.90
2022-10-23T22:47:06.307Z,1.63
2022-10-23T22:49:34.477Z,1.53
2022-10-23T22:52:02.382Z,1.33
2022-10-23T22:54:31.746Z,1.60
2022-10-23T22:56:59.879Z,1.67
2022-10-23T22:59:29.083Z,2.13
2022-10-23T23:01:57.058Z,1.55
2022-10-23T23:04:40.236Z,1.42
2022-10-23T23:07:08.783Z,1.50
2022-10-23T23:09:39.673Z,2.50
2022-10-23T23:12:08.545Z,1.83
2022-10-23T23:14:36.400Z,1.60
2022-10-23T23:17:05.270Z,1.50
2022-10-23T23:19:33.106Z,1.83
2022-10-23T23:22:01.464Z,1.77
2022-10-23T23:24:29.336Z,1.80
2022-10-23T23:26:58.472Z,1.95
2022-10-23T23:29:27.035Z,1.20
2022-10-23T23:31:54.930Z,2.03
2022-10-23T23:34:22.689Z,2.42
2022-10-23T23:36:50.469Z,1.80
2022-10-23T23:39:18.452Z,1.65
2022-10-23T23:41:46.279Z,1.70
2022-10-23T23:44:15.687Z,1.90
2022-10-23T23:46:43.466Z,1.58
2022-10-23T23:49:11.558Z,1.60
2022-10-23T23:51:39.567Z,1.85
2022-10-23T23:54:07.337Z,1.65
2022-10-23T23:56:35.077Z,1.75
2022-10-23T23:59:02.997Z,1.90
